createdAt,value
2019-05-01T00:01:58.641Z,16.12
2019-05-01T00:04:29.677Z,17.42
2019-05-01T00:07:03.575Z,14.05
2019-05-01T00:09:33.051Z,14.58
2019-05-01T00:12:02.486Z,17.90
2019-05-01T00:14:32.036Z,26.10
2019-05-01T00:17:01.403Z,17.95
2019-05-01T00:19:30.740Z,19.15
2019-05-01T00:22:00.181Z,17.80
2019-05-01T00:24:29.529Z,19.30
2019-05-01T00:26:58.890Z,26.70
2019-05-01T00:29:28.228Z,20.62
2019-05-01T00:31:57.660Z,22.10
2019-05-01T00:34:26.995Z,21.95
2019-05-01T00:36:56.358Z,25.20
2019-05-01T00:39:25.692Z,21.37
2019-05-01T00:41:55.054Z,19.95
2019-05-01T00:44:24.560Z,20.02
2019-05-01T00:46:53.895Z,22.55
2019-05-01T00:49:23.262Z,23.73
2019-05-01T00:51:52.597Z,20.57
2019-05-01T00:54:21.955Z,23.38
2019-05-01T00:56:56.419Z,24.07
2019-05-01T00:59:30.495Z,23.32
2019-05-01T01:02:13.742Z,22.07
2019-05-01T01:04:43.153Z,20.48
2019-05-01T01:07:12.581Z,16.27
2019-05-01T01:09:41.909Z,17.95
2019-05-01T01:12:11.282Z,20.88
2019-05-01T01:14:40.619Z,21.85
2019-05-01T01:17:09.959Z,19.70
2019-05-01T01:19:39.329Z,21.00
2019-05-01T01:22:08.666Z,21.65
2019-05-01T01:24:38.169Z,20.80
2019-05-01T01:27:07.644Z,27.35
2019-05-01T01:29:37.095Z,29.57
2019-05-01T01:32:06.606Z,26.57
2019-05-01T01:34:36.120Z,26.80
2019-05-01T01:37:05.595Z,25.88
2019-05-01T01:39:35.087Z,31.25
2019-05-01T01:42:04.764Z,27.37
2019-05-01T01:44:41.688Z,26.05
2019-05-01T01:47:11.569Z,25.65
2019-05-01T01:49:41.000Z,23.07
2019-05-01T01:52:10.467Z,24.20
2019-05-01T01:54:39.975Z,24.05
2019-05-01T01:57:09.377Z,24.35
2019-05-01T01:59:38.812Z,22.73
2019-05-01T02:02:15.864Z,24.92
2019-05-01T02:04:49.609Z,20.60
2019-05-01T02:07:19.084Z,23.60
2019-05-01T02:09:48.590Z,20.08
2019-05-01T02:12:18.268Z,24.05
2019-05-01T02:14:47.696Z,20.97
2019-05-01T02:17:17.112Z,25.43
2019-05-01T02:19:46.610Z,24.00
2019-05-01T02:22:16.086Z,20.27
2019-05-01T02:24:45.889Z,22.25
2019-05-01T02:27:17.003Z,28.07
2019-05-01T02:29:48.242Z,24.90
2019-05-01T02:32:19.712Z,22.27
2019-05-01T02:34:50.325Z,21.20
2019-05-01T02:37:20.687Z,24.07
2019-05-01T02:39:51.492Z,34.43
2019-05-01T02:42:22.914Z,23.02
2019-05-01T02:44:55.667Z,25.05
2019-05-01T02:47:29.909Z,28.00
2019-05-01T02:50:12.735Z,24.43
2019-05-01T02:52:44.501Z,25.43
2019-05-01T02:55:16.216Z,24.65
2019-05-01T02:57:47.595Z,21.57
2019-05-01T03:00:17.639Z,18.75
2019-05-01T03:02:47.112Z,21.95
2019-05-01T03:05:16.554Z,24.87
2019-05-01T03:07:46.527Z,30.20
2019-05-01T03:10:17.142Z,32.50
2019-05-01T03:12:48.601Z,26.50
2019-05-01T03:15:19.700Z,26.07
2019-05-01T03:18:09.487Z,22.48
2019-05-01T03:20:59.575Z,20.95
2019-05-01T03:23:30.800Z,19.07
2019-05-01T03:26:00.773Z,26.20
2019-05-01T03:28:30.876Z,28.30
2019-05-01T03:31:00.320Z,33.55
2019-05-01T03:33:29.794Z,23.05
2019-05-01T03:35:59.292Z,26.50
2019-05-01T03:38:29.770Z,21.55
2019-05-01T03:40:59.399Z,25.23
2019-05-01T03:43:29.474Z,22.50
2019-05-01T03:45:59.278Z,25.70
2019-05-01T03:48:29.118Z,22.45
2019-05-01T03:50:58.626Z,28.25
2019-05-01T03:53:28.103Z,32.28
2019-05-01T03:55:57.463Z,24.02
2019-05-01T03:58:26.877Z,34.48
2019-05-01T04:01:16.563Z,33.70
2019-05-01T04:03:47.966Z,36.68
2019-05-01T04:06:17.470Z,36.40
2019-05-01T04:08:47.229Z,34.55
2019-05-01T04:11:16.752Z,33.25
2019-05-01T04:13:46.458Z,33.80
2019-05-01T04:16:16.608Z,32.58
2019-05-01T04:18:46.257Z,25.30
2019-05-01T04:21:16.393Z,24.47
2019-05-01T04:23:45.971Z,24.20
2019-05-01T04:26:15.677Z,22.48
2019-05-01T04:29:04.951Z,19.02
2019-05-01T04:31:36.045Z,15.95
2019-05-01T04:34:07.156Z,14.80
2019-05-01T04:36:38.571Z,16.55
2019-05-01T04:39:08.959Z,13.93
2019-05-01T04:41:38.376Z,13.68
2019-05-01T04:44:07.852Z,10.75
2019-05-01T04:46:37.452Z,10.85
2019-05-01T04:49:06.917Z,10.03
2019-05-01T04:51:36.997Z,11.85
2019-05-01T04:54:06.705Z,10.15
2019-05-01T04:56:36.107Z,10.98
2019-05-01T04:59:05.963Z,12.18
2019-05-01T05:01:56.970Z,13.58
2019-05-01T05:04:26.914Z,12.80
2019-05-01T05:06:56.322Z,10.75
2019-05-01T05:09:43.343Z,12.98
2019-05-01T05:12:30.709Z,10.88
2019-05-01T05:15:02.759Z,11.08
2019-05-01T05:17:32.821Z,13.45
2019-05-01T05:20:02.224Z,12.68
2019-05-01T05:22:32.074Z,13.85
2019-05-01T05:25:01.652Z,17.80
2019-05-01T05:27:31.147Z,15.72
2019-05-01T05:30:01.718Z,18.67
2019-05-01T05:32:33.156Z,16.42
2019-05-01T05:35:05.850Z,14.87
2019-05-01T05:37:39.464Z,14.28
2019-05-01T05:40:09.045Z,14.58
2019-05-01T05:42:39.013Z,14.47
2019-05-01T05:45:09.316Z,16.97
2019-05-01T05:47:38.925Z,16.23
2019-05-01T05:50:10.401Z,14.73
2019-05-01T05:52:42.979Z,15.85
2019-05-01T05:55:14.196Z,14.25
2019-05-01T05:57:56.408Z,39.65
2019-05-01T06:00:43.940Z,21.35
2019-05-01T06:03:30.769Z,14.63
2019-05-01T06:05:57.787Z,15.93
2019-05-01T06:08:30.626Z,15.78
2019-05-01T06:11:15.347Z,16.10
2019-05-01T06:13:58.959Z,13.70
2019-05-01T06:16:52.048Z,15.85
2019-05-01T06:19:23.715Z,16.80
2019-05-01T06:22:14.466Z,13.93
2019-05-01T06:24:46.124Z,16.40
2019-05-01T06:27:15.995Z,14.35
2019-05-01T06:29:45.596Z,14.43
2019-05-01T06:32:15.001Z,14.10
2019-05-01T06:34:44.502Z,16.57
2019-05-01T06:37:14.174Z,13.58
2019-05-01T06:39:47.955Z,17.50
2019-05-01T06:42:17.132Z,15.83
2019-05-01T06:44:51.304Z,17.25
2019-05-01T06:47:22.419Z,15.83
2019-05-01T06:50:10.079Z,19.37
2019-05-01T06:52:40.701Z,14.18
2019-05-01T06:55:10.700Z,21.12
2019-05-01T06:57:43.956Z,15.03
2019-05-01T07:00:13.536Z,16.00
2019-05-01T07:02:44.107Z,18.12
2019-05-01T07:05:15.147Z,13.50
2019-05-01T07:07:47.995Z,14.70
2019-05-01T07:10:29.812Z,16.15
2019-05-01T07:12:49.218Z,14.00
2019-05-01T07:15:21.826Z,15.20
2019-05-01T07:17:50.391Z,14.58
2019-05-01T07:20:21.536Z,14.00
2019-05-01T07:22:51.125Z,14.83
2019-05-01T07:25:20.738Z,15.83
2019-05-01T07:27:53.884Z,17.07
2019-05-01T07:30:29.392Z,15.05
2019-05-01T07:32:59.065Z,18.57
2019-05-01T07:35:32.896Z,17.27
2019-05-01T07:38:02.317Z,17.20
2019-05-01T07:40:32.458Z,15.90
2019-05-01T07:43:03.594Z,19.45
2019-05-01T07:45:38.985Z,16.73
2019-05-01T07:48:09.560Z,19.12
2019-05-01T07:50:39.773Z,19.15
2019-05-01T07:53:09.256Z,17.05
2019-05-01T07:55:38.976Z,19.48
2019-05-01T07:58:16.016Z,19.30
2019-05-01T08:00:55.532Z,22.30
2019-05-01T08:03:25.418Z,19.35
2019-05-01T08:05:54.864Z,18.62
2019-05-01T08:08:24.301Z,17.32
2019-05-01T08:10:53.816Z,17.12
2019-05-01T08:13:23.261Z,20.43
2019-05-01T08:15:52.716Z,18.23
2019-05-01T08:18:29.844Z,23.32
2019-05-01T08:21:21.097Z,18.60
2019-05-01T08:23:48.329Z,18.02
2019-05-01T08:26:17.801Z,19.73
2019-05-01T08:29:02.974Z,19.92
2019-05-01T08:31:33.707Z,19.90
2019-05-01T08:34:04.949Z,20.90
2019-05-01T08:36:34.575Z,19.45
2019-05-01T08:39:09.124Z,22.25
2019-05-01T08:44:08.226Z,23.50
2019-05-01T08:46:55.631Z,23.90
2019-05-01T08:49:26.759Z,21.10
2019-05-01T08:51:56.384Z,22.67
2019-05-01T08:54:28.895Z,33.90
2019-05-01T08:56:58.081Z,24.72
2019-05-01T08:59:28.113Z,26.82
2019-05-01T09:02:09.050Z,29.67
2019-05-01T09:04:30.597Z,23.90
2019-05-01T09:06:59.795Z,23.42
2019-05-01T09:09:29.237Z,25.72
2019-05-01T09:11:58.665Z,24.32
2019-05-01T09:14:29.776Z,23.75
2019-05-01T09:16:59.109Z,23.40
2019-05-01T09:19:28.484Z,25.10
2019-05-01T09:21:57.965Z,24.18
2019-05-01T09:24:29.277Z,22.05
2019-05-01T09:27:18.645Z,24.10
2019-05-01T09:29:54.751Z,27.32
2019-05-01T09:32:24.258Z,23.83
2019-05-01T09:34:53.736Z,28.23
2019-05-01T09:37:23.178Z,43.63
2019-05-01T09:39:52.598Z,28.35
2019-05-01T09:42:23.855Z,28.12
2019-05-01T09:44:53.147Z,28.87
2019-05-01T09:47:23.271Z,28.92
2019-05-01T09:49:53.884Z,27.82
2019-05-01T09:52:27.792Z,26.62
2019-05-01T09:54:58.807Z,31.55
2019-05-01T09:57:28.148Z,30.08
2019-05-01T09:59:57.524Z,34.98
2019-05-01T10:02:27.080Z,28.40
2019-05-01T10:04:56.520Z,28.17
2019-05-01T10:07:28.886Z,25.65
2019-05-01T10:09:57.035Z,25.32
2019-05-01T10:12:26.543Z,25.75
2019-05-01T10:14:55.951Z,27.60
2019-05-01T10:17:25.378Z,30.75
2019-05-01T10:19:54.844Z,26.35
2019-05-01T10:22:24.190Z,26.60
2019-05-01T10:24:53.579Z,25.43
2019-05-01T10:27:24.573Z,26.30
2019-05-01T10:30:12.142Z,25.32
2019-05-01T10:32:52.785Z,27.45
2019-05-01T10:35:41.765Z,24.45
2019-05-01T10:38:04.660Z,29.27
2019-05-01T10:40:34.317Z,23.80
2019-05-01T10:43:03.932Z,31.65
2019-05-01T10:45:33.346Z,39.00
2019-05-01T10:48:02.711Z,35.48
2019-05-01T10:50:32.422Z,27.65
2019-05-01T10:53:01.762Z,26.12
2019-05-01T10:55:31.290Z,31.00
2019-05-01T10:58:03.223Z,25.92
2019-05-01T11:00:31.992Z,26.10
2019-05-01T11:03:01.456Z,28.90
2019-05-01T11:05:30.826Z,29.05
2019-05-01T11:08:00.253Z,33.95
2019-05-01T11:10:29.715Z,27.93
2019-05-01T11:12:59.061Z,29.92
2019-05-01T11:15:28.426Z,37.08
2019-05-01T11:17:57.775Z,29.55
2019-05-01T11:20:27.150Z,26.55
2019-05-01T11:22:56.568Z,27.70
2019-05-01T11:25:26.374Z,35.92
2019-05-01T11:27:55.849Z,30.50
2019-05-01T11:30:25.503Z,31.70
2019-05-01T11:33:02.495Z,30.43
2019-05-01T11:35:33.512Z,29.87
2019-05-01T11:38:04.840Z,32.35
2019-05-01T11:40:36.004Z,34.45
2019-05-01T11:43:05.795Z,30.57
2019-05-01T11:45:35.342Z,28.60
2019-05-01T11:48:05.004Z,35.08
2019-05-01T11:50:34.442Z,29.57
2019-05-01T11:53:03.781Z,36.17
2019-05-01T11:55:33.330Z,32.58
2019-05-01T11:58:02.746Z,36.45
2019-05-01T12:00:32.188Z,36.00
2019-05-01T12:03:01.605Z,33.73
2019-05-01T12:05:30.981Z,35.13
2019-05-01T12:08:00.326Z,32.40
2019-05-01T12:10:29.691Z,36.10
2019-05-01T12:12:59.041Z,31.50
2019-05-01T12:15:28.543Z,33.48
2019-05-01T12:17:57.912Z,34.63
2019-05-01T12:20:27.400Z,32.63
2019-05-01T12:22:56.742Z,34.90
2019-05-01T12:25:26.186Z,34.18
2019-05-01T12:27:55.525Z,32.88
2019-05-01T12:30:25.068Z,30.77
2019-05-01T12:32:54.507Z,30.95
2019-05-01T12:35:23.957Z,32.15
2019-05-01T12:37:55.481Z,33.00
2019-05-01T12:40:25.050Z,81.45
2019-05-01T12:42:54.405Z,62.65
2019-05-01T12:45:24.699Z,40.92
2019-05-01T12:47:55.820Z,38.55
2019-05-01T12:50:28.635Z,32.80
2019-05-01T12:52:59.622Z,33.75
2019-05-01T12:55:46.791Z,32.35
2019-05-01T12:58:16.278Z,33.25
2019-05-01T13:00:55.329Z,37.63
2019-05-01T13:03:24.674Z,33.18
2019-05-01T13:05:54.045Z,34.60
2019-05-01T13:08:23.466Z,38.75
2019-05-01T13:10:53.213Z,35.95
2019-05-01T13:13:22.634Z,36.25
2019-05-01T13:15:52.048Z,38.08
2019-05-01T13:18:21.485Z,34.18
2019-05-01T13:20:50.900Z,36.03
2019-05-01T13:23:20.275Z,31.77
2019-05-01T13:25:50.964Z,32.83
2019-05-01T13:28:38.053Z,32.65
2019-05-01T13:31:18.029Z,29.92
2019-05-01T13:33:47.466Z,29.72
2019-05-01T13:36:16.885Z,30.68
2019-05-01T13:38:46.391Z,34.55
2019-05-01T13:41:15.879Z,32.83
2019-05-01T13:43:45.385Z,33.25
2019-05-01T13:46:14.803Z,31.25
2019-05-01T13:48:44.250Z,31.25
2019-05-01T13:51:13.597Z,30.37
2019-05-01T13:53:43.030Z,32.28
2019-05-01T13:56:12.448Z,31.15
2019-05-01T13:58:41.881Z,35.40
2019-05-01T14:01:11.886Z,28.27
2019-05-01T14:03:41.259Z,31.12
2019-05-01T14:06:10.738Z,30.30
2019-05-01T14:08:40.115Z,25.75
2019-05-01T14:11:09.602Z,31.05
2019-05-01T14:13:39.112Z,29.07
2019-05-01T14:16:08.648Z,25.35
2019-05-01T14:18:37.971Z,27.27
2019-05-01T14:21:20.596Z,34.25
2019-05-01T14:24:07.942Z,29.18
2019-05-01T14:26:37.409Z,26.97
2019-05-01T14:29:08.324Z,29.98
2019-05-01T14:31:37.724Z,28.73
2019-05-01T14:34:07.098Z,26.40
2019-05-01T14:36:36.532Z,26.62
2019-05-01T14:39:07.847Z,23.67
2019-05-01T14:41:37.512Z,25.25
2019-05-01T14:44:07.036Z,27.17
2019-05-01T14:46:36.458Z,27.20
2019-05-01T14:49:06.200Z,26.23
2019-05-01T14:51:35.685Z,29.15
2019-05-01T14:54:05.338Z,25.35
2019-05-01T14:56:34.730Z,28.90
2019-05-01T14:59:05.137Z,24.95
2019-05-01T15:01:34.491Z,26.07
2019-05-01T15:04:03.936Z,25.88
2019-05-01T15:06:33.278Z,31.50
2019-05-01T15:09:02.655Z,25.68
2019-05-01T15:11:32.071Z,25.10
2019-05-01T15:14:07.148Z,27.48
2019-05-01T15:16:40.817Z,26.87
2019-05-01T15:19:11.835Z,26.40
2019-05-01T15:21:41.248Z,25.72
2019-05-01T15:24:10.621Z,25.90
2019-05-01T15:26:40.044Z,25.50
2019-05-01T15:29:09.494Z,25.62
2019-05-01T15:31:38.910Z,22.95
2019-05-01T15:34:08.447Z,25.00
2019-05-01T15:36:37.741Z,29.10
2019-05-01T15:39:12.273Z,23.57
2019-05-01T15:41:55.481Z,24.27
2019-05-01T15:44:26.492Z,27.45
2019-05-01T15:46:56.075Z,24.80
2019-05-01T15:49:25.503Z,27.55
2019-05-01T15:51:54.980Z,27.93
2019-05-01T15:54:24.372Z,25.68
2019-05-01T15:56:53.717Z,23.05
2019-05-01T15:59:23.150Z,25.32
2019-05-01T16:01:52.595Z,25.20
2019-05-01T16:04:21.963Z,23.65
2019-05-01T16:06:51.503Z,26.02
2019-05-01T16:09:21.036Z,22.75
2019-05-01T16:12:07.288Z,23.62
2019-05-01T16:14:37.035Z,18.27
2019-05-01T16:17:06.525Z,19.80
2019-05-01T16:19:35.961Z,22.35
2019-05-01T16:22:05.832Z,16.67
2019-05-01T16:24:35.213Z,17.87
2019-05-01T16:27:05.074Z,18.23
2019-05-01T16:29:34.511Z,15.98
2019-05-01T16:32:04.275Z,18.42
2019-05-01T16:34:33.643Z,14.20
2019-05-01T16:37:03.001Z,17.92
2019-05-01T16:39:50.081Z,17.70
2019-05-01T16:42:19.745Z,15.93
2019-05-01T16:44:49.144Z,16.85
2019-05-01T16:47:18.555Z,16.75
2019-05-01T16:49:47.993Z,15.68
2019-05-01T16:52:19.121Z,15.18
2019-05-01T16:54:58.795Z,13.80
2019-05-01T16:57:19.787Z,13.35
2019-05-01T16:59:49.211Z,15.63
2019-05-01T17:02:36.224Z,17.52
2019-05-01T17:05:24.163Z,15.28
2019-05-01T17:08:04.370Z,14.63
2019-05-01T17:10:38.487Z,18.67
2019-05-01T17:13:08.052Z,13.60
2019-05-01T17:15:45.105Z,15.25
2019-05-01T17:18:15.364Z,16.60
2019-05-01T17:20:44.802Z,14.63
2019-05-01T17:23:14.284Z,18.57
2019-05-01T17:25:43.739Z,17.50
2019-05-01T17:28:13.222Z,14.93
2019-05-01T17:30:47.081Z,18.80
2019-05-01T17:33:20.687Z,17.75
2019-05-01T17:35:47.857Z,17.40
2019-05-01T17:38:17.280Z,20.10
2019-05-01T17:40:51.565Z,20.00
2019-05-01T17:43:18.375Z,20.65
2019-05-01T17:45:48.011Z,23.00
2019-05-01T17:48:17.354Z,19.23
2019-05-01T17:50:46.805Z,19.65
2019-05-01T17:53:16.359Z,18.57
2019-05-01T17:55:45.730Z,20.90
2019-05-01T17:58:15.150Z,22.05
2019-05-01T18:00:46.377Z,25.60
2019-05-01T18:03:33.421Z,22.55
2019-05-01T18:06:22.363Z,18.10
2019-05-01T18:09:02.511Z,18.70
2019-05-01T18:11:23.229Z,18.27
2019-05-01T18:13:52.712Z,20.00
2019-05-01T18:16:22.322Z,17.70
2019-05-01T18:18:51.934Z,17.98
2019-05-01T18:21:21.788Z,21.55
2019-05-01T18:23:58.612Z,24.80
2019-05-01T18:26:29.933Z,29.18
2019-05-01T18:29:19.306Z,24.18
2019-05-01T18:31:48.742Z,19.98
2019-05-01T18:34:18.163Z,18.50
2019-05-01T18:37:04.105Z,21.50
2019-05-01T18:39:35.080Z,22.00
2019-05-01T18:42:06.401Z,17.62
2019-05-01T18:44:35.752Z,20.12
2019-05-01T18:47:05.610Z,25.52
2019-05-01T18:49:34.950Z,30.92
2019-05-01T18:52:04.851Z,23.02
2019-05-01T18:54:35.007Z,22.17
2019-05-01T18:57:06.268Z,20.85
2019-05-01T18:59:35.701Z,23.62
2019-05-01T19:02:05.191Z,22.13
2019-05-01T19:04:34.564Z,24.67
2019-05-01T19:07:04.213Z,23.50
2019-05-01T19:09:36.662Z,26.48
2019-05-01T19:12:06.973Z,19.48
2019-05-01T19:14:36.589Z,23.67
2019-05-01T19:17:06.097Z,23.07
2019-05-01T19:19:35.496Z,26.57
2019-05-01T19:22:06.285Z,25.82
2019-05-01T19:24:38.185Z,28.75
2019-05-01T19:27:07.129Z,27.52
2019-05-01T19:29:36.762Z,18.98
2019-05-01T19:32:06.450Z,23.83
2019-05-01T19:34:35.851Z,55.20
2019-05-01T19:37:05.614Z,35.43
2019-05-01T19:39:43.560Z,23.60
2019-05-01T19:42:06.939Z,23.45
2019-05-01T19:44:36.278Z,26.48
2019-05-01T19:47:07.842Z,27.55
2019-05-01T19:49:37.023Z,21.65
2019-05-01T19:52:06.617Z,30.88
2019-05-01T19:54:35.992Z,26.65
2019-05-01T19:57:05.596Z,23.70
2019-05-01T19:59:35.038Z,26.80
2019-05-01T20:02:06.151Z,23.42
2019-05-01T20:04:35.616Z,22.40
2019-05-01T20:07:05.090Z,24.82
2019-05-01T20:09:34.457Z,21.82
2019-05-01T20:12:04.158Z,21.20
2019-05-01T20:14:33.701Z,20.88
2019-05-01T20:17:04.669Z,25.77
2019-05-01T20:19:34.351Z,21.73
2019-05-01T20:22:03.921Z,21.90
2019-05-01T20:24:33.289Z,23.80
2019-05-01T20:27:02.829Z,24.15
2019-05-01T20:29:32.199Z,27.02
2019-05-01T20:32:01.866Z,48.90
2019-05-01T20:34:31.277Z,54.05
2019-05-01T20:37:00.686Z,41.18
2019-05-01T20:39:30.128Z,35.68
2019-05-01T20:41:59.469Z,43.35
2019-05-01T20:44:28.834Z,35.75
2019-05-01T20:47:02.169Z,53.17
2019-05-01T20:49:29.281Z,33.83
2019-05-01T20:51:58.699Z,28.38
2019-05-01T20:54:28.059Z,38.13
2019-05-01T20:56:59.043Z,32.67
2019-05-01T20:59:28.415Z,31.37
2019-05-01T21:02:07.767Z,25.90
2019-05-01T21:04:35.346Z,28.15
2019-05-01T21:07:19.506Z,26.90
2019-05-01T21:09:52.569Z,26.75
2019-05-01T21:12:18.966Z,26.37
2019-05-01T21:14:49.569Z,29.23
2019-05-01T21:17:19.334Z,26.25
2019-05-01T21:19:48.838Z,28.65
2019-05-01T21:22:18.245Z,31.20
2019-05-01T21:24:47.594Z,29.60
2019-05-01T21:27:16.952Z,27.93
2019-05-01T21:29:46.301Z,33.50
2019-05-01T21:32:18.387Z,29.98
2019-05-01T21:34:46.792Z,33.15
2019-05-01T21:37:16.154Z,27.25
2019-05-01T21:39:45.490Z,40.03
2019-05-01T21:42:15.879Z,32.85
2019-05-01T21:44:45.716Z,31.45
2019-05-01T21:47:15.081Z,32.13
2019-05-01T21:49:44.412Z,33.28
2019-05-01T21:52:18.016Z,34.40
2019-05-01T21:54:44.917Z,29.85
2019-05-01T21:57:17.446Z,27.62
2019-05-01T21:59:48.174Z,31.82
2019-05-01T22:02:16.580Z,30.12
2019-05-01T22:04:45.985Z,29.02
2019-05-01T22:07:15.414Z,29.57
2019-05-01T22:09:45.726Z,28.17
2019-05-01T22:12:16.158Z,29.02
2019-05-01T22:14:53.190Z,32.08
2019-05-01T22:17:37.437Z,28.67
2019-05-01T22:20:09.651Z,28.27
2019-05-01T22:22:46.391Z,31.02
2019-05-01T22:25:23.010Z,33.60
2019-05-01T22:27:54.079Z,31.95
2019-05-01T22:30:33.945Z,34.55
2019-05-01T22:33:03.521Z,32.73
2019-05-01T22:35:40.116Z,27.50
2019-05-01T22:38:09.547Z,33.83
2019-05-01T22:41:05.302Z,31.82
2019-05-01T22:43:25.904Z,29.95
2019-05-01T22:45:56.188Z,30.15
2019-05-01T22:48:26.623Z,30.43
2019-05-01T22:50:57.671Z,31.15
2019-05-01T22:53:27.033Z,32.30
2019-05-01T22:55:57.386Z,34.25
2019-05-01T22:58:27.461Z,30.15
2019-05-01T23:00:58.583Z,32.95
2019-05-01T23:03:41.327Z,27.62
2019-05-01T23:06:10.489Z,34.25
2019-05-01T23:08:39.915Z,34.78
2019-05-01T23:11:19.627Z,31.65
2019-05-01T23:13:42.238Z,36.35
2019-05-01T23:16:11.909Z,39.40
2019-05-01T23:18:41.352Z,32.00
2019-05-01T23:21:14.637Z,34.58
2019-05-01T23:23:41.914Z,33.42
2019-05-01T23:26:11.708Z,36.15
2019-05-01T23:28:42.427Z,32.05
2019-05-01T23:31:11.780Z,35.00
2019-05-01T23:33:41.122Z,32.70
2019-05-01T23:36:22.942Z,28.92
2019-05-01T23:38:41.617Z,32.60
2019-05-01T23:41:11.021Z,32.90
2019-05-01T23:43:40.411Z,27.70
2019-05-01T23:46:09.873Z,36.75
2019-05-01T23:48:39.242Z,30.80
2019-05-01T23:51:08.658Z,32.53
2019-05-01T23:53:38.093Z,30.57
2019-05-01T23:56:07.428Z,30.23
2019-05-01T23:58:36.862Z,29.72
